createdAt,value
2019-02-27T00:00:49.190Z,1027.41
2019-02-27T00:01:49.861Z,1027.51
2019-02-27T00:02:49.172Z,1027.38
2019-02-27T00:03:49.160Z,1027.39
2019-02-27T00:04:49.149Z,1027.41
2019-02-27T00:05:49.137Z,1027.43
2019-02-27T00:06:49.132Z,1027.43
2019-02-27T00:07:49.116Z,1027.43
2019-02-27T00:08:49.111Z,1027.45
2019-02-27T00:09:49.095Z,1027.45
2019-02-27T00:10:49.087Z,1027.45
2019-02-27T00:11:49.076Z,1027.53
2019-02-27T00:12:51.736Z,1027.49
2019-02-27T00:13:49.053Z,1027.47
2019-02-27T00:14:49.043Z,1027.48
2019-02-27T00:15:49.032Z,1027.46
2019-02-27T00:16:49.023Z,1027.44
2019-02-27T00:17:51.478Z,1027.41
2019-02-27T00:18:49.002Z,1027.41
2019-02-27T00:19:48.993Z,1027.42
2019-02-27T00:20:48.982Z,1027.48
2019-02-27T00:21:48.970Z,1027.47
2019-02-27T00:22:50.597Z,1027.55
2019-02-27T00:23:48.951Z,1027.55
2019-02-27T00:24:48.939Z,1027.53
2019-02-27T00:25:48.927Z,1027.52
2019-02-27T00:26:48.919Z,1027.50
2019-02-27T00:27:49.850Z,1027.47
2019-02-27T00:28:48.908Z,1027.42
2019-02-27T00:29:48.892Z,1027.43
2019-02-27T00:30:48.875Z,1027.44
2019-02-27T00:31:48.868Z,1027.43
2019-02-27T00:32:51.317Z,1027.34
2019-02-27T00:33:48.845Z,1027.36
2019-02-27T00:34:48.834Z,1027.37
2019-02-27T00:35:48.825Z,1027.33
2019-02-27T00:36:48.812Z,1027.31
2019-02-27T00:37:51.850Z,1027.22
2019-02-27T00:38:48.794Z,1027.30
2019-02-27T00:39:48.782Z,1027.29
2019-02-27T00:40:48.772Z,1027.30
2019-02-27T00:41:48.761Z,1027.25
2019-02-27T00:42:48.753Z,1027.34
2019-02-27T00:43:48.740Z,1027.35
2019-02-27T00:44:48.729Z,1027.35
2019-02-27T00:45:48.724Z,1027.39
2019-02-27T00:46:48.707Z,1027.32
2019-02-27T00:47:53.005Z,1027.31
2019-02-27T00:48:49.687Z,1027.31
2019-02-27T00:49:48.678Z,1027.23
2019-02-27T00:50:48.667Z,1027.28
2019-02-27T00:51:48.661Z,1027.29
2019-02-27T00:52:50.928Z,1027.31
2019-02-27T00:53:48.634Z,1027.30
2019-02-27T00:54:48.623Z,1027.29
2019-02-27T00:55:48.617Z,1027.26
2019-02-27T00:56:48.605Z,1027.35
2019-02-27T00:57:48.592Z,1027.30
2019-02-27T00:58:48.581Z,1027.27
2019-02-27T00:59:48.572Z,1027.25
2019-02-27T01:00:48.564Z,1027.33
2019-02-27T01:01:48.554Z,1027.29
2019-02-27T01:02:52.881Z,1027.31
2019-02-27T01:03:48.530Z,1027.31
2019-02-27T01:04:48.519Z,1027.20
2019-02-27T01:05:48.510Z,1027.20
2019-02-27T01:06:48.498Z,1027.23
2019-02-27T01:07:48.488Z,1027.18
2019-02-27T01:08:48.476Z,1027.13
2019-02-27T01:09:48.469Z,1027.19
2019-02-27T01:10:48.456Z,1027.15
2019-02-27T01:11:51.537Z,1027.17
2019-02-27T01:12:48.435Z,1027.19
2019-02-27T01:13:48.425Z,1027.16
2019-02-27T01:14:48.414Z,1027.14
2019-02-27T01:15:48.403Z,1027.16
2019-02-27T01:16:50.248Z,1027.17
2019-02-27T01:17:48.385Z,1027.13
2019-02-27T01:18:48.371Z,1027.17
2019-02-27T01:19:48.361Z,1027.08
2019-02-27T01:20:48.351Z,1027.07
2019-02-27T01:21:48.348Z,1027.06
2019-02-27T01:22:48.330Z,1027.05
2019-02-27T01:23:48.321Z,1027.02
2019-02-27T01:24:50.217Z,1027.03
2019-02-27T01:25:48.303Z,1027.05
2019-02-27T01:26:48.289Z,1027.05
2019-02-27T01:27:48.280Z,1027.09
2019-02-27T01:28:48.267Z,1027.09
2019-02-27T01:29:50.975Z,1027.12
2019-02-27T01:30:48.248Z,1027.14
2019-02-27T01:31:48.235Z,1027.10
2019-02-27T01:32:48.228Z,1027.06
2019-02-27T01:33:48.217Z,1027.03
2019-02-27T01:34:48.207Z,1027.01
2019-02-27T01:35:51.278Z,1026.99
2019-02-27T01:36:48.186Z,1027.07
2019-02-27T01:37:48.174Z,1027.03
2019-02-27T01:38:48.165Z,1027.03
2019-02-27T01:39:48.154Z,1026.93
2019-02-27T01:40:48.957Z,1027.01
2019-02-27T01:41:48.130Z,1026.96
2019-02-27T01:42:48.122Z,1027.03
2019-02-27T01:43:48.113Z,1027.02
2019-02-27T01:44:48.101Z,1027.00
2019-02-27T01:45:48.089Z,1026.98
2019-02-27T01:46:48.079Z,1027.00
2019-02-27T01:47:48.069Z,1026.97
2019-02-27T01:48:48.057Z,1026.93
2019-02-27T01:49:49.132Z,1026.86
2019-02-27T01:50:48.036Z,1026.90
2019-02-27T01:51:48.028Z,1026.79
2019-02-27T01:52:48.016Z,1026.85
2019-02-27T01:53:48.006Z,1026.83
2019-02-27T01:54:48.997Z,1026.82
2019-02-27T01:55:47.985Z,1026.83
2019-02-27T01:56:47.988Z,1026.75
2019-02-27T01:57:47.964Z,1026.72
2019-02-27T01:58:47.955Z,1026.70
2019-02-27T01:59:50.275Z,1026.67
2019-02-27T02:00:47.935Z,1026.70
2019-02-27T02:01:47.923Z,1026.64
2019-02-27T02:02:47.910Z,1026.62
2019-02-27T02:03:48.140Z,1026.65
2019-02-27T02:04:47.891Z,1026.71
2019-02-27T02:05:47.880Z,1026.69
2019-02-27T02:06:47.869Z,1026.65
2019-02-27T02:07:47.860Z,1026.63
2019-02-27T02:08:48.787Z,1026.64
2019-02-27T02:09:47.838Z,1026.61
2019-02-27T02:10:47.830Z,1026.61
2019-02-27T02:11:47.818Z,1026.60
2019-02-27T02:12:47.806Z,1026.56
2019-02-27T02:13:48.733Z,1026.53
2019-02-27T02:14:47.785Z,1026.52
2019-02-27T02:15:47.774Z,1026.52
2019-02-27T02:16:47.763Z,1026.50
2019-02-27T02:17:47.752Z,1026.51
2019-02-27T02:18:48.249Z,1026.52
2019-02-27T02:19:48.831Z,1026.48
2019-02-27T02:20:47.723Z,1026.48
2019-02-27T02:21:47.712Z,1026.53
2019-02-27T02:22:47.700Z,1026.46
2019-02-27T02:23:48.466Z,1026.43
2019-02-27T02:24:47.679Z,1026.44
2019-02-27T02:25:47.670Z,1026.43
2019-02-27T02:26:47.659Z,1026.43
2019-02-27T02:27:47.648Z,1026.38
2019-02-27T02:28:48.350Z,1026.33
2019-02-27T02:29:47.629Z,1026.37
2019-02-27T02:30:47.618Z,1026.36
2019-02-27T02:31:47.607Z,1026.31
2019-02-27T02:32:51.977Z,1026.35
2019-02-27T02:33:48.586Z,1026.34
2019-02-27T02:34:47.580Z,1026.33
2019-02-27T02:35:50.713Z,1026.31
2019-02-27T02:36:47.555Z,1026.31
2019-02-27T02:37:47.545Z,1026.25
2019-02-27T02:38:47.537Z,1026.22
2019-02-27T02:39:54.030Z,1026.20
2019-02-27T02:40:48.511Z,1026.20
2019-02-27T02:41:48.300Z,1026.22
2019-02-27T02:42:47.492Z,1026.17
2019-02-27T02:43:47.485Z,1026.19
2019-02-27T02:44:47.469Z,1026.12
2019-02-27T02:45:47.468Z,1026.15
2019-02-27T02:46:47.449Z,1026.15
2019-02-27T02:47:48.248Z,1026.10
2019-02-27T02:48:47.429Z,1026.17
2019-02-27T02:49:47.420Z,1026.10
2019-02-27T02:50:47.407Z,1026.13
2019-02-27T02:51:47.400Z,1026.13
2019-02-27T02:52:47.390Z,1026.15
2019-02-27T02:53:48.782Z,1026.14
2019-02-27T02:54:47.375Z,1026.16
2019-02-27T02:55:48.833Z,1026.10
2019-02-27T02:56:47.352Z,1026.06
2019-02-27T02:57:47.338Z,1026.06
2019-02-27T02:58:48.778Z,1026.12
2019-02-27T02:59:47.315Z,1026.11
2019-02-27T03:00:47.303Z,1026.12
2019-02-27T03:01:49.372Z,1026.12
2019-02-27T03:02:47.281Z,1026.11
2019-02-27T03:03:47.279Z,1026.14
2019-02-27T03:04:48.201Z,1026.17
2019-02-27T03:05:47.253Z,1026.17
2019-02-27T03:06:47.242Z,1026.16
2019-02-27T03:07:47.231Z,1026.13
2019-02-27T03:08:47.222Z,1026.14
2019-02-27T03:09:47.207Z,1026.16
2019-02-27T03:10:47.202Z,1026.15
2019-02-27T03:11:47.188Z,1026.15
2019-02-27T03:12:47.175Z,1026.18
2019-02-27T03:13:47.168Z,1026.17
2019-02-27T03:14:53.260Z,1026.16
2019-02-27T03:15:48.145Z,1026.18
2019-02-27T03:16:47.136Z,1026.16
2019-02-27T03:17:47.126Z,1026.15
2019-02-27T03:18:47.113Z,1026.18
2019-02-27T03:19:47.108Z,1026.23
2019-02-27T03:20:51.843Z,1026.23
2019-02-27T03:21:48.080Z,1026.23
2019-02-27T03:22:47.072Z,1026.21
2019-02-27T03:23:50.989Z,1026.20
2019-02-27T03:24:47.062Z,1026.18
2019-02-27T03:25:47.045Z,1026.21
2019-02-27T03:26:51.644Z,1026.19
2019-02-27T03:27:48.020Z,1026.18
2019-02-27T03:28:47.008Z,1026.15
2019-02-27T03:29:52.164Z,1026.18
2019-02-27T03:30:47.987Z,1026.20
2019-02-27T03:31:57.542Z,1026.19
2019-02-27T03:32:47.978Z,1026.10
2019-02-27T03:33:46.957Z,1026.10
2019-02-27T03:34:50.555Z,1026.09
2019-02-27T03:35:46.935Z,1026.06
2019-02-27T03:36:46.925Z,1026.09
2019-02-27T03:37:48.566Z,1026.07
2019-02-27T03:38:46.907Z,1026.05
2019-02-27T03:39:46.895Z,1026.04
2019-02-27T03:40:48.119Z,1026.00
2019-02-27T03:41:46.873Z,1026.03
2019-02-27T03:42:46.863Z,1026.02
2019-02-27T03:43:46.888Z,1026.05
2019-02-27T03:44:46.845Z,1026.07
2019-02-27T03:45:46.830Z,1026.06
2019-02-27T03:46:46.819Z,1026.03
2019-02-27T03:47:51.666Z,1026.00
2019-02-27T03:48:47.798Z,1026.01
2019-02-27T03:49:46.790Z,1025.95
2019-02-27T03:50:49.884Z,1026.02
2019-02-27T03:51:46.769Z,1026.00
2019-02-27T03:52:46.767Z,1026.02
2019-02-27T03:53:47.215Z,1025.98
2019-02-27T03:54:48.460Z,1026.02
2019-02-27T03:55:46.728Z,1026.01
2019-02-27T03:56:46.717Z,1026.00
2019-02-27T03:57:46.703Z,1026.05
2019-02-27T03:58:46.694Z,1026.03
2019-02-27T03:59:46.684Z,1025.97
2019-02-27T04:00:49.858Z,1026.01
2019-02-27T04:01:47.661Z,1026.01
2019-02-27T04:02:46.652Z,1026.05
2019-02-27T04:03:46.643Z,1026.00
2019-02-27T04:04:46.633Z,1026.01
2019-02-27T04:05:46.624Z,1025.98
2019-02-27T04:06:46.611Z,1025.95
2019-02-27T04:07:46.602Z,1025.99
2019-02-27T04:08:46.594Z,1025.96
2019-02-27T04:09:46.578Z,1025.95
2019-02-27T04:10:46.572Z,1025.92
2019-02-27T04:11:46.558Z,1025.92
2019-02-27T04:12:51.335Z,1025.94
2019-02-27T04:13:47.534Z,1025.84
2019-02-27T04:14:46.527Z,1025.91
2019-02-27T04:15:46.517Z,1025.88
2019-02-27T04:16:46.506Z,1025.88
2019-02-27T04:17:51.867Z,1025.93
2019-02-27T04:18:47.484Z,1025.89
2019-02-27T04:19:46.474Z,1025.86
2019-02-27T04:20:49.892Z,1025.83
2019-02-27T04:21:46.457Z,1025.82
2019-02-27T04:22:46.441Z,1025.82
2019-02-27T04:23:48.999Z,1025.84
2019-02-27T04:24:46.423Z,1025.82
2019-02-27T04:25:46.414Z,1025.79
2019-02-27T04:26:46.402Z,1025.78
2019-02-27T04:27:46.390Z,1025.78
2019-02-27T04:28:46.382Z,1025.80
2019-02-27T04:29:46.378Z,1025.79
2019-02-27T04:30:51.010Z,1025.79
2019-02-27T04:31:47.347Z,1025.78
2019-02-27T04:32:48.721Z,1025.77
2019-02-27T04:33:46.327Z,1025.76
2019-02-27T04:34:46.315Z,1025.76
2019-02-27T04:35:46.305Z,1025.73
2019-02-27T04:36:47.164Z,1025.68
2019-02-27T04:37:46.285Z,1025.74
2019-02-27T04:38:46.277Z,1025.63
2019-02-27T04:39:46.269Z,1025.68
2019-02-27T04:40:46.254Z,1025.66
2019-02-27T04:41:46.246Z,1025.73
2019-02-27T04:42:46.233Z,1025.71
2019-02-27T04:43:46.222Z,1025.70
2019-02-27T04:44:46.210Z,1025.71
2019-02-27T04:45:46.715Z,1025.73
2019-02-27T04:46:46.189Z,1025.72
2019-02-27T04:47:46.179Z,1025.68
2019-02-27T04:48:46.169Z,1025.68
2019-02-27T04:49:46.158Z,1025.67
2019-02-27T04:50:46.148Z,1025.63
2019-02-27T04:51:48.095Z,1025.61
2019-02-27T04:52:46.131Z,1025.64
2019-02-27T04:53:46.118Z,1025.65
2019-02-27T04:54:46.106Z,1025.65
2019-02-27T04:55:48.001Z,1025.69
2019-02-27T04:56:46.084Z,1025.66
2019-02-27T04:57:46.075Z,1025.68
2019-02-27T04:58:46.067Z,1025.65
2019-02-27T04:59:46.054Z,1025.62
2019-02-27T05:00:46.045Z,1025.63
2019-02-27T05:01:46.033Z,1025.60
2019-02-27T05:02:46.024Z,1025.59
2019-02-27T05:03:46.012Z,1025.52
2019-02-27T05:04:46.003Z,1025.55
2019-02-27T05:05:45.991Z,1025.59
2019-02-27T05:06:47.332Z,1025.54
2019-02-27T05:07:45.970Z,1025.51
2019-02-27T05:08:45.996Z,1025.52
2019-02-27T05:09:45.952Z,1025.50
2019-02-27T05:10:45.939Z,1025.51
2019-02-27T05:11:48.287Z,1025.48
2019-02-27T05:12:48.216Z,1025.47
2019-02-27T05:13:45.907Z,1025.40
2019-02-27T05:14:45.895Z,1025.45
2019-02-27T05:15:45.887Z,1025.46
2019-02-27T05:16:47.319Z,1025.43
2019-02-27T05:17:45.867Z,1025.41
2019-02-27T05:18:45.854Z,1025.34
2019-02-27T05:19:45.844Z,1025.37
2019-02-27T05:20:45.861Z,1025.36
2019-02-27T05:21:45.828Z,1025.37
2019-02-27T05:22:45.813Z,1025.35
2019-02-27T05:23:45.802Z,1025.34
2019-02-27T05:24:45.794Z,1025.35
2019-02-27T05:25:45.786Z,1025.30
2019-02-27T05:26:45.771Z,1025.33
2019-02-27T05:27:45.761Z,1025.33
2019-02-27T05:28:45.749Z,1025.38
2019-02-27T05:29:45.739Z,1025.36
2019-02-27T05:30:45.935Z,1025.33
2019-02-27T05:31:45.719Z,1025.27
2019-02-27T05:32:45.710Z,1025.34
2019-02-27T05:33:45.699Z,1025.34
2019-02-27T05:34:49.407Z,1025.34
2019-02-27T05:35:45.676Z,1025.40
2019-02-27T05:36:45.668Z,1025.37
2019-02-27T05:37:45.658Z,1025.37
2019-02-27T05:38:45.646Z,1025.36
2019-02-27T05:39:45.634Z,1025.42
2019-02-27T05:40:45.624Z,1025.38
2019-02-27T05:41:45.614Z,1025.43
2019-02-27T05:42:45.602Z,1025.42
2019-02-27T05:43:48.570Z,1025.43
2019-02-27T05:44:45.581Z,1025.44
2019-02-27T05:45:45.577Z,1025.41
2019-02-27T05:46:45.560Z,1025.43
2019-02-27T05:47:45.988Z,1025.39
2019-02-27T05:48:45.546Z,1025.39
2019-02-27T05:49:45.531Z,1025.40
2019-02-27T05:50:45.523Z,1025.34
2019-02-27T05:51:45.509Z,1025.34
2019-02-27T05:52:48.426Z,1025.35
2019-02-27T05:53:45.488Z,1025.34
2019-02-27T05:54:45.478Z,1025.41
2019-02-27T05:55:45.469Z,1025.38
2019-02-27T05:56:47.193Z,1025.38
2019-02-27T05:57:45.445Z,1025.41
2019-02-27T05:58:45.441Z,1025.36
2019-02-27T05:59:45.426Z,1025.36
2019-02-27T06:00:45.416Z,1025.40
2019-02-27T06:01:45.407Z,1025.34
2019-02-27T06:02:45.668Z,1025.32
2019-02-27T06:03:45.383Z,1025.31
2019-02-27T06:04:45.374Z,1025.34
2019-02-27T06:05:49.533Z,1025.33
2019-02-27T06:06:45.897Z,1025.30
2019-02-27T06:07:45.341Z,1025.28
2019-02-27T06:08:45.343Z,1025.23
2019-02-27T06:09:45.372Z,1025.19
2019-02-27T06:10:45.309Z,1025.19
2019-02-27T06:11:45.437Z,1025.22
2019-02-27T06:12:45.288Z,1025.22
2019-02-27T06:13:47.451Z,1025.21
2019-02-27T06:14:45.269Z,1025.21
2019-02-27T06:15:45.257Z,1025.17
2019-02-27T06:16:45.248Z,1025.21
2019-02-27T06:17:48.799Z,1025.20
2019-02-27T06:18:45.242Z,1025.22
2019-02-27T06:19:45.216Z,1025.15
2019-02-27T06:20:45.208Z,1025.12
2019-02-27T06:21:45.195Z,1025.13
2019-02-27T06:22:45.184Z,1025.10
2019-02-27T06:23:45.183Z,1025.12
2019-02-27T06:24:45.635Z,1025.10
2019-02-27T06:25:45.152Z,1025.08
2019-02-27T06:26:45.143Z,1025.10
2019-02-27T06:27:45.134Z,1025.09
2019-02-27T06:28:45.121Z,1025.11
2019-02-27T06:29:45.126Z,1025.08
2019-02-27T06:30:45.100Z,1025.10
2019-02-27T06:31:45.089Z,1025.13
2019-02-27T06:32:45.079Z,1025.12
2019-02-27T06:33:45.823Z,1025.13
2019-02-27T06:34:45.057Z,1025.11
2019-02-27T06:35:45.047Z,1025.14
2019-02-27T06:36:45.038Z,1025.09
2019-02-27T06:37:45.026Z,1025.12
2019-02-27T06:38:45.017Z,1025.09
2019-02-27T06:39:45.009Z,1025.10
2019-02-27T06:40:44.995Z,1025.07
2019-02-27T06:41:47.455Z,1025.11
2019-02-27T06:42:44.977Z,1025.06
2019-02-27T06:43:44.964Z,1025.10
2019-02-27T06:44:44.955Z,1025.04
2019-02-27T06:45:46.416Z,1025.02
2019-02-27T06:46:44.935Z,1025.04
2019-02-27T06:47:44.920Z,1025.00
2019-02-27T06:48:44.911Z,1025.01
2019-02-27T06:49:44.900Z,1024.96
2019-02-27T06:50:44.890Z,1024.98
2019-02-27T06:51:44.880Z,1024.98
2019-02-27T06:52:44.872Z,1024.99
2019-02-27T06:53:44.858Z,1025.00
2019-02-27T06:54:44.848Z,1024.93
2019-02-27T06:55:44.837Z,1024.95
2019-02-27T06:56:44.837Z,1024.95
2019-02-27T06:57:44.815Z,1024.91
2019-02-27T06:58:44.806Z,1024.94
2019-02-27T06:59:44.798Z,1024.88
2019-02-27T07:00:44.786Z,1024.86
2019-02-27T07:01:45.147Z,1024.87
2019-02-27T07:02:44.767Z,1024.85
2019-02-27T07:03:44.756Z,1024.88
2019-02-27T07:04:44.742Z,1024.91
2019-02-27T07:05:45.510Z,1024.90
2019-02-27T07:06:44.722Z,1024.94
2019-02-27T07:07:44.712Z,1024.90
2019-02-27T07:08:44.706Z,1024.89
2019-02-27T07:09:45.959Z,1024.81
2019-02-27T07:10:44.680Z,1024.85
2019-02-27T07:11:45.951Z,1024.87
2019-02-27T07:12:44.659Z,1024.81
2019-02-27T07:13:44.658Z,1024.83
2019-02-27T07:14:44.637Z,1024.89
2019-02-27T07:15:47.724Z,1024.86
2019-02-27T07:16:44.614Z,1024.82
2019-02-27T07:17:44.603Z,1024.78
2019-02-27T07:18:44.595Z,1024.78
2019-02-27T07:19:44.583Z,1024.71
2019-02-27T07:20:44.574Z,1024.71
2019-02-27T07:21:44.562Z,1024.68
2019-02-27T07:22:46.494Z,1024.71
2019-02-27T07:23:44.540Z,1024.78
2019-02-27T07:24:44.529Z,1024.75
2019-02-27T07:25:44.520Z,1024.77
2019-02-27T07:26:44.508Z,1024.76
2019-02-27T07:27:44.500Z,1024.77
2019-02-27T07:28:44.486Z,1024.75
2019-02-27T07:29:44.476Z,1024.71
2019-02-27T07:30:44.471Z,1024.77
2019-02-27T07:31:44.458Z,1024.72
2019-02-27T07:32:44.444Z,1024.77
2019-02-27T07:33:44.434Z,1024.73
2019-02-27T07:34:46.743Z,1024.67
2019-02-27T07:35:45.418Z,1024.71
2019-02-27T07:36:44.401Z,1024.64
2019-02-27T07:37:47.174Z,1024.68
2019-02-27T07:38:44.433Z,1024.60
2019-02-27T07:39:44.368Z,1024.63
2019-02-27T07:40:44.364Z,1024.65
2019-02-27T07:41:44.348Z,1024.60
2019-02-27T07:42:44.341Z,1024.61
2019-02-27T07:43:44.468Z,1024.65
2019-02-27T07:44:44.316Z,1024.60
2019-02-27T07:45:45.422Z,1024.60
2019-02-27T07:46:44.295Z,1024.57
2019-02-27T07:47:44.284Z,1024.57
2019-02-27T07:48:44.279Z,1024.58
2019-02-27T07:49:44.263Z,1024.61
2019-02-27T07:50:48.289Z,1024.64
2019-02-27T07:51:44.241Z,1024.62
2019-02-27T07:52:44.231Z,1024.54
2019-02-27T07:53:44.220Z,1024.57
2019-02-27T07:54:44.218Z,1024.49
2019-02-27T07:55:44.199Z,1024.55
2019-02-27T07:56:44.188Z,1024.57
2019-02-27T07:57:44.179Z,1024.51
2019-02-27T07:58:44.167Z,1024.54
2019-02-27T07:59:44.158Z,1024.53
2019-02-27T08:00:47.223Z,1024.52
2019-02-27T08:01:45.139Z,1024.52
2019-02-27T08:02:44.124Z,1024.55
2019-02-27T08:03:45.567Z,1024.51
2019-02-27T08:04:44.103Z,1024.47
2019-02-27T08:05:44.094Z,1024.45
2019-02-27T08:06:44.082Z,1024.48
2019-02-27T08:07:48.680Z,1024.43
2019-02-27T08:08:45.060Z,1024.37
2019-02-27T08:09:44.056Z,1024.37
2019-02-27T08:10:45.284Z,1024.34
2019-02-27T08:11:47.150Z,1024.42
2019-02-27T08:12:44.028Z,1024.44
2019-02-27T08:13:44.010Z,1024.41
2019-02-27T08:14:43.999Z,1024.30
2019-02-27T08:15:43.985Z,1024.29
2019-02-27T08:16:43.975Z,1024.32
2019-02-27T08:17:44.007Z,1024.24
2019-02-27T08:18:43.955Z,1024.29
2019-02-27T08:19:45.354Z,1024.31
2019-02-27T08:20:43.934Z,1024.29
2019-02-27T08:21:43.920Z,1024.28
2019-02-27T08:22:43.910Z,1024.28
2019-02-27T08:23:43.905Z,1024.28
2019-02-27T08:24:43.888Z,1024.24
2019-02-27T08:25:43.879Z,1024.30
2019-02-27T08:26:43.871Z,1024.19
2019-02-27T08:27:43.946Z,1024.21
2019-02-27T08:28:43.846Z,1024.24
2019-02-27T08:29:43.834Z,1024.22
2019-02-27T08:30:43.824Z,1024.20
2019-02-27T08:31:43.813Z,1024.17
2019-02-27T08:32:43.805Z,1024.25
2019-02-27T08:33:43.793Z,1024.24
2019-02-27T08:34:43.779Z,1024.21
2019-02-27T08:35:43.771Z,1024.24
2019-02-27T08:36:43.760Z,1024.23
2019-02-27T08:37:43.747Z,1024.24
2019-02-27T08:38:43.742Z,1024.18
2019-02-27T08:39:43.727Z,1024.19
2019-02-27T08:40:43.716Z,1024.14
2019-02-27T08:41:43.705Z,1024.21
2019-02-27T08:42:43.696Z,1024.16
2019-02-27T08:43:43.684Z,1024.17
2019-02-27T08:44:45.785Z,1024.19
2019-02-27T08:45:43.666Z,1024.18
2019-02-27T08:46:43.652Z,1024.17
2019-02-27T08:47:44.384Z,1024.12
2019-02-27T08:48:43.634Z,1024.11
2019-02-27T08:49:43.619Z,1024.15
2019-02-27T08:50:43.611Z,1024.15
2019-02-27T08:51:43.598Z,1024.12
2019-02-27T08:52:44.535Z,1024.13
2019-02-27T08:53:43.578Z,1024.14
2019-02-27T08:54:43.565Z,1024.12
2019-02-27T08:55:43.555Z,1024.08
2019-02-27T08:56:44.013Z,1024.12
2019-02-27T08:57:43.532Z,1024.08
2019-02-27T08:58:43.532Z,1024.04
2019-02-27T08:59:43.512Z,1024.11
2019-02-27T09:00:47.179Z,1024.10
2019-02-27T09:01:43.490Z,1024.14
2019-02-27T09:02:43.480Z,1024.12
2019-02-27T09:03:43.477Z,1024.09
2019-02-27T09:04:45.558Z,1024.03
2019-02-27T09:05:43.462Z,1023.92
2019-02-27T09:06:43.437Z,1023.97
2019-02-27T09:07:43.428Z,1023.88
2019-02-27T09:08:44.211Z,1023.90
2019-02-27T09:09:43.407Z,1023.91
2019-02-27T09:10:43.394Z,1023.83
2019-02-27T09:11:43.384Z,1023.84
2019-02-27T09:12:45.344Z,1023.77
2019-02-27T09:13:43.362Z,1023.86
2019-02-27T09:14:43.353Z,1023.79
2019-02-27T09:15:43.348Z,1023.83
2019-02-27T09:16:43.329Z,1023.88
2019-02-27T09:17:43.319Z,1023.88
2019-02-27T09:18:44.153Z,1023.89
2019-02-27T09:19:45.496Z,1023.84
2019-02-27T09:20:43.290Z,1023.87
2019-02-27T09:21:43.276Z,1023.87
2019-02-27T09:22:43.266Z,1023.82
2019-02-27T09:23:43.259Z,1023.78
2019-02-27T09:24:43.245Z,1023.73
2019-02-27T09:25:43.241Z,1023.80
2019-02-27T09:26:43.222Z,1023.70
2019-02-27T09:27:43.243Z,1023.73
2019-02-27T09:28:44.556Z,1023.71
2019-02-27T09:29:43.190Z,1023.67
2019-02-27T09:30:43.182Z,1023.66
2019-02-27T09:31:50.543Z,1023.61
2019-02-27T09:32:46.014Z,1023.65
2019-02-27T09:33:43.158Z,1023.61
2019-02-27T09:34:43.140Z,1023.60
2019-02-27T09:35:43.128Z,1023.59
2019-02-27T09:36:43.852Z,1023.63
2019-02-27T09:37:43.116Z,1023.59
2019-02-27T09:38:45.102Z,1023.59
2019-02-27T09:39:43.088Z,1023.55
2019-02-27T09:40:43.074Z,1023.57
2019-02-27T09:41:46.317Z,1023.55
2019-02-27T09:42:43.061Z,1023.56
2019-02-27T09:43:43.044Z,1023.58
2019-02-27T09:44:43.031Z,1023.57
2019-02-27T09:45:46.233Z,1023.54
2019-02-27T09:46:43.010Z,1023.49
2019-02-27T09:47:43.005Z,1023.49
2019-02-27T09:48:42.988Z,1023.53
2019-02-27T09:49:42.978Z,1023.49
2019-02-27T09:50:47.634Z,1023.47
2019-02-27T09:51:43.958Z,1023.42
2019-02-27T09:52:42.947Z,1023.41
2019-02-27T09:53:42.938Z,1023.42
2019-02-27T09:54:46.600Z,1023.43
2019-02-27T09:55:42.915Z,1023.40
2019-02-27T09:56:42.908Z,1023.41
2019-02-27T09:57:42.895Z,1023.40
2019-02-27T09:58:45.648Z,1023.37
2019-02-27T09:59:42.874Z,1023.33
2019-02-27T10:00:42.865Z,1023.32
2019-02-27T10:01:42.853Z,1023.31
2019-02-27T10:02:43.166Z,1023.29
2019-02-27T10:03:42.837Z,1023.28
2019-02-27T10:04:42.823Z,1023.31
2019-02-27T10:05:42.814Z,1023.29
2019-02-27T10:06:43.512Z,1023.27
2019-02-27T10:07:42.791Z,1023.27
2019-02-27T10:08:42.780Z,1023.23
2019-02-27T10:09:42.768Z,1023.20
2019-02-27T10:10:45.804Z,1023.22
2019-02-27T10:11:42.751Z,1023.20
2019-02-27T10:12:42.743Z,1023.21
2019-02-27T10:13:42.726Z,1023.19
2019-02-27T10:14:42.717Z,1023.24
2019-02-27T10:15:42.706Z,1023.22
2019-02-27T10:16:42.697Z,1023.25
2019-02-27T10:17:43.680Z,1023.20
2019-02-27T10:18:42.676Z,1023.19
2019-02-27T10:19:42.666Z,1023.23
2019-02-27T10:20:42.660Z,1023.20
2019-02-27T10:21:44.573Z,1023.21
2019-02-27T10:22:42.641Z,1023.25
2019-02-27T10:23:42.622Z,1023.17
2019-02-27T10:24:42.611Z,1023.20
2019-02-27T10:25:43.619Z,1023.15
2019-02-27T10:26:42.595Z,1023.13
2019-02-27T10:27:42.580Z,1023.16
2019-02-27T10:28:44.035Z,1023.08
2019-02-27T10:29:42.561Z,1023.12
2019-02-27T10:30:42.549Z,1023.15
2019-02-27T10:31:42.538Z,1023.10
2019-02-27T10:32:42.533Z,1023.13
2019-02-27T10:33:43.491Z,1023.12
2019-02-27T10:34:42.515Z,1023.15
2019-02-27T10:35:42.498Z,1023.12
2019-02-27T10:36:42.488Z,1023.06
2019-02-27T10:37:42.544Z,1023.02
2019-02-27T10:38:42.471Z,1023.04
2019-02-27T10:39:42.456Z,1023.03
2019-02-27T10:40:42.446Z,1023.01
2019-02-27T10:41:42.437Z,1022.95
2019-02-27T10:42:42.426Z,1022.95
2019-02-27T10:43:42.419Z,1022.88
2019-02-27T10:44:42.407Z,1022.83
2019-02-27T10:45:42.404Z,1022.87
2019-02-27T10:46:42.384Z,1022.79
2019-02-27T10:47:42.375Z,1022.77
2019-02-27T10:48:42.365Z,1022.73
2019-02-27T10:49:42.354Z,1022.73
2019-02-27T10:50:42.343Z,1022.73
2019-02-27T10:51:43.752Z,1022.74
2019-02-27T10:52:42.328Z,1022.72
2019-02-27T10:53:42.314Z,1022.70
2019-02-27T10:54:42.301Z,1022.75
2019-02-27T10:55:42.296Z,1022.72
2019-02-27T10:56:42.288Z,1022.69
2019-02-27T10:57:42.271Z,1022.66
2019-02-27T10:58:42.261Z,1022.61
2019-02-27T10:59:42.250Z,1022.66
2019-02-27T11:00:42.240Z,1022.64
2019-02-27T11:01:42.231Z,1022.61
2019-02-27T11:02:45.056Z,1022.66
2019-02-27T11:03:43.209Z,1022.64
2019-02-27T11:04:42.199Z,1022.58
2019-02-27T11:05:42.188Z,1022.59
2019-02-27T11:06:42.184Z,1022.56
2019-02-27T11:07:42.171Z,1022.58
2019-02-27T11:08:42.156Z,1022.51
2019-02-27T11:09:42.147Z,1022.59
2019-02-27T11:10:42.138Z,1022.55
2019-02-27T11:11:42.126Z,1022.53
2019-02-27T11:12:42.121Z,1022.59
2019-02-27T11:13:42.115Z,1022.51
2019-02-27T11:14:42.095Z,1022.50
2019-02-27T11:15:43.160Z,1022.49
2019-02-27T11:16:42.075Z,1022.49
2019-02-27T11:17:42.063Z,1022.48
2019-02-27T11:18:42.778Z,1022.49
2019-02-27T11:19:42.043Z,1022.42
2019-02-27T11:20:42.040Z,1022.39
2019-02-27T11:21:42.026Z,1022.36
2019-02-27T11:22:42.012Z,1022.34
2019-02-27T11:23:42.014Z,1022.31
2019-02-27T11:24:41.992Z,1022.28
2019-02-27T11:25:41.983Z,1022.29
2019-02-27T11:26:41.970Z,1022.29
2019-02-27T11:27:41.961Z,1022.32
2019-02-27T11:28:47.396Z,1022.28
2019-02-27T11:29:42.939Z,1022.22
2019-02-27T11:30:41.928Z,1022.26
2019-02-27T11:31:42.348Z,1022.21
2019-02-27T11:32:41.958Z,1022.21
2019-02-27T11:33:41.897Z,1022.19
2019-02-27T11:34:41.887Z,1022.16
2019-02-27T11:35:41.877Z,1022.22
2019-02-27T11:36:41.866Z,1022.18
2019-02-27T11:37:44.390Z,1022.13
2019-02-27T11:38:42.844Z,1022.15
2019-02-27T11:39:41.835Z,1022.14
2019-02-27T11:40:42.815Z,1022.14
2019-02-27T11:41:41.818Z,1022.12
2019-02-27T11:42:41.803Z,1022.03
2019-02-27T11:43:41.793Z,1022.02
2019-02-27T11:44:41.826Z,1022.00
2019-02-27T11:45:41.772Z,1021.99
2019-02-27T11:46:41.762Z,1021.96
2019-02-27T11:47:45.101Z,1021.96
2019-02-27T11:48:42.740Z,1021.88
2019-02-27T11:49:41.730Z,1021.87
2019-02-27T11:50:41.721Z,1021.83
2019-02-27T11:51:41.711Z,1021.79
2019-02-27T11:52:48.537Z,1021.76
2019-02-27T11:53:42.691Z,1021.75
2019-02-27T11:54:43.314Z,1021.74
2019-02-27T11:55:41.671Z,1021.73
2019-02-27T11:56:41.659Z,1021.77
2019-02-27T11:57:43.233Z,1021.69
2019-02-27T11:58:41.638Z,1021.68
2019-02-27T11:59:41.628Z,1021.63
2019-02-27T12:00:41.616Z,1021.63
2019-02-27T12:01:41.608Z,1021.53
2019-02-27T12:02:41.596Z,1021.54
2019-02-27T12:03:45.659Z,1021.54
2019-02-27T12:04:41.576Z,1021.51
2019-02-27T12:05:41.566Z,1021.49